Time;durP1;ratioP1;P1;durP2;ratioP2;P2;SDS_P1;SDS_P2;PMS_P1;PMS_P2;Temp;Humidity;BMP_temperature;BMP_pressure;BME280_temperature;BME280_humidity;BME280_pressure;Samples;Min_cycle;Max_cycle;Signal;HPM_P1;HPM_P2
2020/12/24 00:00:30;;;;;;;5.05;1.95;;;11.80;93.80;;;;;;5026440;28;20542;-56
2020/12/24 00:02:56;;;;;;;3.28;1.38;;;11.80;94.30;;;;;;5031691;28;20397;-53
2020/12/24 00:05:21;;;;;;;5.60;1.05;;;11.70;93.90;;;;;;5043497;28;20035;-53
2020/12/24 00:07:47;;;;;;;5.53;1.92;;;11.70;94.00;;;;;;5045451;28;20032;-55
2020/12/24 00:10:12;;;;;;;4.15;0.95;;;11.70;93.60;;;;;;5038745;28;20505;-53
2020/12/24 00:12:38;;;;;;;4.43;1.25;;;11.60;93.30;;;;;;5026696;28;20025;-56
2020/12/24 00:15:06;;;;;;;2.47;1.08;;;11.50;93.20;;;;;;5016694;28;20118;-56
2020/12/24 00:17:31;;;;;;;3.72;1.23;;;11.50;93.70;;;;;;5028321;28;20493;-55
2020/12/24 00:19:57;;;;;;;6.78;2.00;;;11.50;93.90;;;;;;5041387;28;20036;-58
2020/12/24 00:22:22;;;;;;;2.80;1.00;;;11.40;94.10;;;;;;5066270;28;20535;-58
2020/12/24 00:24:48;;;;;;;4.15;1.40;;;11.40;94.40;;;;;;5060408;28;20025;-59
2020/12/24 00:27:13;;;;;;;7.00;1.48;;;11.40;94.60;;;;;;5046591;28;20022;-47
2020/12/24 00:29:39;;;;;;;3.83;1.33;;;11.40;95.00;;;;;;5042548;28;20387;-51
2020/12/24 00:32:05;;;;;;;6.20;1.35;;;11.30;95.60;;;;;;5008950;28;20100;-53
2020/12/24 00:34:30;;;;;;;5.97;1.33;;;11.20;95.80;;;;;;5027523;28;20045;-60
2020/12/24 00:36:56;;;;;;;6.88;1.73;;;11.20;95.90;;;;;;5025968;28;20444;-62
2020/12/24 00:39:22;;;;;;;9.23;1.20;;;11.20;95.60;;;;;;5009092;28;20064;-50
2020/12/24 00:41:48;;;;;;;5.97;1.38;;;11.20;95.20;;;;;;5028050;28;20401;-47
2020/12/24 00:44:13;;;;;;;6.68;1.70;;;11.20;95.20;;;;;;5046471;28;20524;-45
2020/12/24 00:46:39;;;;;;;4.50;1.88;;;11.10;95.00;;;;;;5028160;28;20034;-45
2020/12/24 00:49:04;;;;;;;7.13;1.35;;;11.00;95.30;;;;;;5025782;28;20375;-58
2020/12/24 00:51:30;;;;;;;5.20;1.20;;;11.00;95.50;;;;;;5024761;28;20036;-50
2020/12/24 00:53:55;;;;;;;8.48;1.80;;;11.00;95.90;;;;;;5049747;28;20039;-51
2020/12/24 00:56:21;;;;;;;3.83;1.10;;;10.90;96.20;;;;;;5017543;28;20068;-52
2020/12/24 00:58:46;;;;;;;5.13;1.60;;;10.90;96.40;;;;;;5011656;28;20443;-48
2020/12/24 01:01:12;;;;;;;7.93;1.30;;;10.80;96.50;;;;;;5041181;28;20043;-53
2020/12/24 01:03:37;;;;;;;5.32;1.45;;;10.80;96.60;;;;;;5077603;22;20049;-57
2020/12/24 01:06:03;;;;;;;7.57;1.40;;;10.70;96.70;;;;;;5073043;28;20031;-53
2020/12/24 01:08:29;;;;;;;8.15;1.20;;;10.80;96.90;;;;;;5072725;28;20099;-54
2020/12/24 01:10:54;;;;;;;7.00;1.25;;;10.80;96.20;;;;;;5055045;28;20116;-51
2020/12/24 01:13:20;;;;;;;4.78;1.25;;;10.80;96.40;;;;;;5073022;28;20032;-48
2020/12/24 01:15:45;;;;;;;5.57;2.33;;;10.80;96.60;;;;;;5072995;28;20031;-52
2020/12/24 01:18:11;;;;;;;11.73;1.60;;;10.80;96.80;;;;;;5072414;28;20021;-54
2020/12/24 01:20:36;;;;;;;5.90;0.90;;;10.90;96.80;;;;;;5073563;28;20032;-51
2020/12/24 01:23:03;;;;;;;6.75;2.17;;;10.90;96.50;;;;;;5072696;28;20104;-56
2020/12/24 01:25:28;;;;;;;3.25;1.13;;;10.90;96.40;;;;;;5072910;28;20025;-50
2020/12/24 01:27:54;;;;;;;4.07;1.35;;;10.90;96.40;;;;;;5072511;28;20107;-56
2020/12/24 01:30:19;;;;;;;5.75;1.50;;;10.90;96.30;;;;;;5054452;28;20024;-49
2020/12/24 01:32:45;;;;;;;5.85;1.75;;;10.80;96.50;;;;;;5072579;28;20063;-48
2020/12/24 01:35:10;;;;;;;5.78;1.88;;;10.80;96.50;;;;;;5072859;28;20040;-51
2020/12/24 01:37:36;;;;;;;2.58;1.00;;;10.70;96.50;;;;;;5053934;28;20127;-51
2020/12/24 01:40:03;;;;;;;8.07;1.58;;;10.70;96.50;;;;;;5072536;28;20118;-52
2020/12/24 01:42:29;;;;;;;5.78;1.25;;;10.60;96.60;;;;;;5072610;28;20058;-52
2020/12/24 01:44:54;;;;;;;7.68;2.08;;;10.70;96.60;;;;;;5072231;28;20117;-55
2020/12/24 01:47:20;;;;;;;7.40;3.08;;;10.70;96.30;;;;;;5071961;28;20227;-53
2020/12/24 01:49:46;;;;;;;9.25;2.72;;;10.70;96.10;;;;;;5054262;28;20020;-50
2020/12/24 01:52:35;;;;;;;7.72;1.98;;;10.70;96.10;;;;;;5072486;28;20033;-53
2020/12/24 01:55:03;;;;;;;6.70;1.25;;;10.60;96.10;;;;;;5072153;28;20032;-52
2020/12/24 01:57:29;;;;;;;8.32;1.73;;;10.60;96.20;;;;;;5071328;28;20162;-55
2020/12/24 01:59:55;;;;;;;7.47;1.70;;;10.60;96.30;;;;;;5072155;28;20099;-49
2020/12/24 02:02:21;;;;;;;7.55;2.72;;;10.60;96.50;;;;;;5071424;28;20046;-52
2020/12/24 02:04:46;;;;;;;11.88;3.03;;;10.50;96.90;;;;;;5072344;28;20028;-52
2020/12/24 02:07:15;;;;;;;15.57;2.67;;;10.50;96.90;;;;;;5071315;28;20021;-51
2020/12/24 02:09:43;;;;;;;8.57;1.83;;;10.50;97.10;;;;;;5071793;28;20489;-50
2020/12/24 02:12:09;;;;;;;8.65;1.58;;;10.40;97.30;;;;;;5071586;28;20056;-51
2020/12/24 02:14:34;;;;;;;6.10;1.70;;;10.40;97.40;;;;;;5071832;28;20068;-52
2020/12/24 02:17:00;;;;;;;5.05;1.52;;;10.40;97.50;;;;;;5071109;28;20028;-51
2020/12/24 02:19:25;;;;;;;5.75;1.42;;;10.30;97.50;;;;;;5071646;28;20445;-57
2020/12/24 02:21:50;;;;;;;5.07;1.42;;;10.30;97.40;;;;;;5071674;28;20028;-50
2020/12/24 02:24:16;;;;;;;8.43;2.17;;;10.30;97.30;;;;;;5071367;28;20071;-57
2020/12/24 02:26:42;;;;;;;5.78;1.70;;;10.20;97.10;;;;;;5071545;28;20025;-54
2020/12/24 02:29:07;;;;;;;5.45;1.98;;;10.10;97.00;;;;;;5070789;28;20096;-47
2020/12/24 02:31:33;;;;;;;5.18;1.58;;;10.10;97.00;;;;;;5071406;28;20029;-48
2020/12/24 02:33:58;;;;;;;6.43;1.98;;;10.00;96.90;;;;;;5071259;28;20037;-57
2020/12/24 02:36:23;;;;;;;6.47;1.52;;;10.00;97.00;;;;;;5071228;28;20432;-52
2020/12/24 02:38:49;;;;;;;9.25;1.75;;;10.00;96.90;;;;;;5070695;28;20109;-50
2020/12/24 02:41:14;;;;;;;6.95;2.15;;;10.00;96.50;;;;;;5071135;28;20020;-52
2020/12/24 02:43:45;;;;;;;7.95;1.77;;;9.90;96.30;;;;;;5071207;28;20028;-53
2020/12/24 02:46:10;;;;;;;7.32;1.48;;;9.90;95.80;;;;;;5071261;28;20021;-51
2020/12/24 02:48:36;;;;;;;6.20;2.17;;;9.90;95.80;;;;;;5070412;28;20036;-56
2020/12/24 02:51:01;;;;;;;9.90;1.80;;;9.90;95.60;;;;;;5071095;28;20036;-51
2020/12/24 02:53:27;;;;;;;7.07;1.67;;;9.90;95.40;;;;;;5071041;28;20095;-46
2020/12/24 02:55:53;;;;;;;10.10;2.30;;;9.80;95.40;;;;;;5071054;28;20119;-52
2020/12/24 02:58:19;;;;;;;6.35;1.60;;;9.90;95.60;;;;;;5070224;28;20370;-52
2020/12/24 03:00:44;;;;;;;8.27;1.85;;;9.80;95.60;;;;;;5052868;28;20031;-55
2020/12/24 03:03:10;;;;;;;7.03;1.80;;;9.70;95.90;;;;;;5070669;28;20044;-48
2020/12/24 03:05:35;;;;;;;10.32;1.30;;;9.70;96.00;;;;;;5070980;28;20386;-52
2020/12/24 03:08:01;;;;;;;12.38;2.78;;;9.80;96.00;;;;;;5070351;28;20028;-51
2020/12/24 03:10:27;;;;;;;13.23;2.53;;;9.80;95.90;;;;;;5071057;28;20032;-54
2020/12/24 03:12:52;;;;;;;8.13;1.70;;;9.80;95.70;;;;;;5072869;28;20031;-51
2020/12/24 03:15:18;;;;;;;5.78;1.60;;;9.80;95.80;;;;;;5070629;28;20029;-51
2020/12/24 03:17:43;;;;;;;8.63;2.25;;;9.70;95.90;;;;;;5070087;28;20429;-53
2020/12/24 03:20:09;;;;;;;8.82;1.92;;;9.70;96.20;;;;;;5070716;28;20025;-52
2020/12/24 03:22:35;;;;;;;7.93;1.80;;;9.80;95.70;;;;;;5070861;28;20441;-47
2020/12/24 03:25:01;;;;;;;10.73;1.90;;;9.80;95.60;;;;;;5070752;28;20090;-50
2020/12/24 03:27:26;;;;;;;5.20;1.90;;;9.80;95.60;;;;;;5070161;28;20485;-47
2020/12/24 03:29:54;;;;;;;9.35;1.90;;;9.80;95.30;;;;;;5070896;28;20025;-50
2020/12/24 03:32:19;;;;;;;8.93;2.00;;;9.70;95.70;;;;;;5070642;28;20020;-51
2020/12/24 03:34:45;;;;;;;7.60;1.77;;;9.70;95.40;;;;;;5070601;28;20435;-51
2020/12/24 03:37:10;;;;;;;5.95;1.42;;;9.60;95.20;;;;;;5051835;28;20017;-48
2020/12/24 03:39:36;;;;;;;6.85;1.77;;;9.60;95.40;;;;;;5070344;28;20486;-53
2020/12/24 03:42:01;;;;;;;7.13;1.48;;;9.50;95.60;;;;;;5070094;28;20039;-56
2020/12/24 03:44:27;;;;;;;10.63;1.88;;;9.60;95.50;;;;;;5070336;28;20033;-52
2020/12/24 03:46:52;;;;;;;8.18;2.15;;;9.50;95.50;;;;;;5070349;28;20542;-51
2020/12/24 03:49:18;;;;;;;15.35;2.70;;;9.60;95.50;;;;;;5069830;28;20017;-53
2020/12/24 03:51:43;;;;;;;9.77;1.77;;;9.50;95.50;;;;;;5070475;28;20028;-53
2020/12/24 03:54:09;;;;;;;6.70;1.77;;;9.50;95.40;;;;;;5070138;28;20024;-50
2020/12/24 03:56:34;;;;;;;9.18;1.67;;;9.40;95.60;;;;;;5052197;28;20056;-52
2020/12/24 03:59:00;;;;;;;4.47;1.20;;;9.40;95.50;;;;;;5069856;28;20048;-52
2020/12/24 04:01:25;;;;;;;11.48;2.25;;;9.40;95.40;;;;;;5070558;28;20090;-47
2020/12/24 04:03:52;;;;;;;5.13;1.40;;;9.30;95.40;;;;;;5070187;28;20059;-47
2020/12/24 04:06:18;;;;;;;10.68;3.13;;;9.30;95.60;;;;;;5070279;28;20028;-52
2020/12/24 04:08:43;;;;;;;8.23;1.90;;;9.20;95.70;;;;;;5051498;28;20031;-52
2020/12/24 04:11:09;;;;;;;8.18;2.83;;;9.10;96.10;;;;;;5070075;28;20431;-52
2020/12/24 04:13:34;;;;;;;9.10;1.98;;;9.00;96.50;;;;;;5070055;28;20028;-56
2020/12/24 04:16:00;;;;;;;6.30;1.60;;;9.00;96.70;;;;;;5070217;28;20389;-55
2020/12/24 04:18:25;;;;;;;11.13;2.17;;;8.90;97.00;;;;;;5069320;28;20021;-49
2020/12/24 04:20:51;;;;;;;11.55;1.75;;;8.90;97.10;;;;;;5070099;28;20421;-50
2020/12/24 04:23:16;;;;;;;10.43;2.00;;;8.90;97.10;;;;;;5069993;28;20067;-52
2020/12/24 04:25:42;;;;;;;12.00;2.60;;;8.90;97.00;;;;;;5071156;28;20431;-52
2020/12/24 04:28:07;;;;;;;6.40;1.23;;;8.90;97.10;;;;;;5073346;28;20616;-55
2020/12/24 04:30:33;;;;;;;10.90;1.70;;;8.90;97.20;;;;;;5073651;28;20063;-55
2020/12/24 04:32:58;;;;;;;8.60;2.65;;;8.90;97.50;;;;;;5073656;28;20130;-53
2020/12/24 04:35:24;;;;;;;8.65;1.70;;;8.80;97.70;;;;;;5073687;28;20035;-51
2020/12/24 04:37:50;;;;;;;9.82;2.10;;;8.90;97.60;;;;;;5072996;28;20020;-52
2020/12/24 04:40:16;;;;;;;12.02;1.65;;;8.90;97.40;;;;;;5073451;28;20028;-54
2020/12/24 04:42:42;;;;;;;9.57;1.98;;;8.90;97.50;;;;;;5073673;28;20025;-53
2020/12/24 04:45:08;;;;;;;7.20;1.83;;;9.00;97.20;;;;;;5073664;28;20035;-49
2020/12/24 04:47:36;;;;;;;9.80;2.58;;;9.10;97.10;;;;;;5072840;28;20024;-52
2020/12/24 04:50:02;;;;;;;8.82;2.60;;;9.00;97.00;;;;;;5073522;28;20051;-51
2020/12/24 04:52:29;;;;;;;9.52;1.98;;;9.00;97.20;;;;;;5073665;28;20489;-51
2020/12/24 04:54:56;;;;;;;19.33;3.35;;;9.10;97.30;;;;;;5073339;28;20021;-48
2020/12/24 04:57:22;;;;;;;11.85;2.80;;;9.10;97.20;;;;;;5072621;28;20571;-47
2020/12/24 04:59:48;;;;;;;7.70;2.47;;;9.10;97.00;;;;;;5073145;28;20032;-53
2020/12/24 05:02:14;;;;;;;8.18;2.30;;;9.20;97.00;;;;;;5073114;28;20036;-47
2020/12/24 05:04:40;;;;;;;10.25;2.22;;;9.10;97.10;;;;;;5073268;28;20025;-53
2020/12/24 05:07:07;;;;;;;7.90;1.90;;;9.20;97.10;;;;;;5073308;28;20047;-49
2020/12/24 05:09:33;;;;;;;9.30;1.70;;;9.30;97.20;;;;;;5072764;28;20021;-50
2020/12/24 05:11:59;;;;;;;10.75;2.33;;;9.20;96.90;;;;;;5073077;28;20455;-51
2020/12/24 05:14:27;;;;;;;6.82;2.10;;;9.30;96.90;;;;;;5073100;28;20099;-57
2020/12/24 05:17:00;;;;;;;8.30;1.90;;;9.30;97.00;;;;;;5072973;28;20027;-51
2020/12/24 05:19:28;;;;;;;8.90;2.42;;;9.30;96.80;;;;;;5072092;28;20098;-51
2020/12/24 05:21:54;;;;;;;13.85;2.17;;;9.30;96.90;;;;;;5072772;28;20020;-50
2020/12/24 05:24:33;;;;;;;10.00;1.67;;;9.30;96.90;;;;;;5072744;28;20031;-55
2020/12/24 05:27:28;;;;;;;13.15;1.85;;;9.30;96.90;;;;;;5072855;28;20043;-48
2020/12/24 05:29:53;;;;;;;14.68;2.30;;;9.40;97.00;;;;;;5059489;28;20178;-52
2020/12/24 05:32:29;;;;;;;11.63;1.77;;;9.40;97.10;;;;;;5072451;28;20051;-53
2020/12/24 05:35:12;;;;;;;11.25;3.15;;;9.30;96.50;;;;;;5072732;28;20021;-51
2020/12/24 05:37:38;;;;;;;8.57;2.10;;;9.30;96.70;;;;;;5071068;28;20028;-50
2020/12/24 05:40:19;;;;;;;5.45;1.17;;;9.30;96.40;;;;;;5054416;28;20500;-51
2020/12/24 05:42:55;;;;;;;8.52;1.45;;;9.30;96.20;;;;;;5072710;28;20505;-50
2020/12/24 05:45:22;;;;;;;;;;;9.30;96.00;;;;;;5072995;28;20021;-49
2020/12/24 05:48:06;;;;;;;7.05;1.70;;;9.40;95.90;;;;;;5071756;28;20337;-52
2020/12/24 05:50:32;;;;;;;8.68;2.03;;;9.40;95.70;;;;;;5073100;28;20112;-49
2020/12/24 05:53:05;;;;;;;9.68;1.85;;;9.40;96.00;;;;;;5073253;28;20556;-53
2020/12/24 05:55:31;;;;;;;9.60;1.58;;;9.30;96.20;;;;;;5072590;28;20056;-53
2020/12/24 05:57:58;;;;;;;10.77;2.10;;;9.30;96.50;;;;;;5053706;28;20501;-49
2020/12/24 06:00:39;;;;;;;9.32;2.33;;;9.30;96.60;;;;;;5072374;28;20021;-50
2020/12/24 06:03:18;;;;;;;10.80;1.80;;;9.30;96.80;;;;;;5072028;28;20528;-49
2020/12/24 06:05:56;;;;;;;6.10;1.63;;;9.30;96.90;;;;;;5072026;28;20028;-52
2020/12/24 06:08:30;;;;;;;16.52;2.85;;;9.20;98.00;;;;;;5071257;28;20048;-49
2020/12/24 06:11:04;;;;;;;13.45;2.67;;;9.20;97.90;;;;;;5071874;28;20029;-54
2020/12/24 06:13:38;;;;;;;8.85;2.15;;;9.10;98.80;;;;;;5071768;28;20024;-57
2020/12/24 06:16:06;;;;;;;9.32;2.30;;;9.10;99.10;;;;;;5071761;28;20363;-56
2020/12/24 06:18:33;;;;;;;10.40;1.40;;;9.00;99.20;;;;;;5070975;28;20045;-53
2020/12/24 06:21:02;;;;;;;14.77;2.33;;;8.90;99.10;;;;;;5071679;28;20028;-50
2020/12/24 06:23:32;;;;;;;9.00;1.63;;;8.90;99.40;;;;;;5071582;28;20027;-51
2020/12/24 06:26:04;;;;;;;6.80;1.33;;;8.90;99.90;;;;;;5071545;28;20389;-56
2020/12/24 06:28:32;;;;;;;7.88;2.05;;;8.90;99.90;;;;;;5070832;28;20454;-51
2020/12/24 06:30:59;;;;;;;9.60;1.73;;;8.80;99.90;;;;;;5071517;28;20040;-53
2020/12/24 06:33:26;;;;;;;10.45;1.58;;;8.70;99.90;;;;;;5071686;28;20444;-50
2020/12/24 06:35:52;;;;;;;4.78;1.92;;;8.70;99.90;;;;;;5071347;28;20108;-53
2020/12/24 06:38:37;;;;;;;10.80;2.22;;;8.70;99.90;;;;;;5070588;28;20107;-52
2020/12/24 06:41:37;;;;;;;8.68;1.67;;;8.70;99.90;;;;;;5071181;28;20048;-49
2020/12/24 06:44:04;;;;;;;9.82;1.60;;;8.70;99.90;;;;;;5071217;28;20050;-53
2020/12/24 06:46:56;;;;;;;8.13;2.53;;;8.70;99.90;;;;;;5071184;28;20024;-47
2020/12/24 06:49:30;;;;;;;7.38;1.63;;;8.60;99.90;;;;;;5069536;28;20489;-55
2020/12/24 06:51:56;;;;;;;9.32;1.80;;;8.70;99.90;;;;;;5070970;28;20029;-50
2020/12/24 06:54:23;;;;;;;10.35;1.55;;;8.70;99.90;;;;;;5071041;28;20119;-51
2020/12/24 06:56:49;;;;;;;6.15;1.70;;;8.70;99.90;;;;;;5071079;28;20021;-53
2020/12/24 06:59:20;;;;;;;9.77;2.13;;;8.70;99.90;;;;;;5070357;28;20142;-50
2020/12/24 07:02:03;;;;;;;8.82;2.08;;;8.70;99.90;;;;;;5070709;28;20051;-46
2020/12/24 07:04:35;;;;;;;11.63;1.65;;;8.70;99.90;;;;;;5100372;22;20606;-51
2020/12/24 07:07:01;;;;;;;9.68;1.85;;;8.70;99.90;;;;;;5091068;28;20016;-56
2020/12/24 07:09:26;;;;;;;8.13;1.63;;;8.70;99.90;;;;;;5072465;28;20096;-55
2020/12/24 07:11:53;;;;;;;9.95;2.03;;;8.70;99.90;;;;;;5073183;28;20020;-52
2020/12/24 07:14:31;;;;;;;12.38;2.00;;;8.70;99.90;;;;;;5073074;28;20122;-55
2020/12/24 07:17:26;;;;;;;4.68;1.30;;;8.70;99.90;;;;;;5091307;28;20027;-53
2020/12/24 07:19:55;;;;;;;7.65;1.73;;;8.70;99.90;;;;;;5077685;28;20044;-54
2020/12/24 07:22:26;;;;;;;12.93;1.70;;;8.70;99.90;;;;;;5091001;28;20036;-55
2020/12/24 07:24:56;;;;;;;8.80;2.25;;;8.70;99.90;;;;;;5091951;28;20488;-50
2020/12/24 07:27:23;;;;;;;12.27;2.25;;;8.60;99.90;;;;;;5091158;28;20061;-51
2020/12/24 07:29:49;;;;;;;10.73;2.22;;;8.50;99.90;;;;;;5090214;28;20068;-51
2020/12/24 07:32:15;;;;;;;11.30;1.40;;;8.50;99.90;;;;;;5090816;28;20481;-50
2020/12/24 07:34:40;;;;;;;8.35;2.03;;;8.50;99.90;;;;;;5090813;28;20115;-53
2020/12/24 07:37:08;;;;;;;2.83;1.15;;;8.50;99.90;;;;;;5090752;28;20158;-49
2020/12/24 07:39:34;;;;;;;10.82;1.80;;;8.40;99.90;;;;;;5072143;28;20032;-54
2020/12/24 07:41:59;;;;;;;10.05;1.88;;;8.40;99.90;;;;;;5090751;28;20065;-54
2020/12/24 07:44:25;;;;;;;5.88;1.77;;;8.40;99.90;;;;;;5090460;28;20105;-50
2020/12/24 07:46:52;;;;;;;12.63;2.22;;;8.40;99.90;;;;;;5090655;28;20028;-52
2020/12/24 07:49:18;;;;;;;8.52;1.70;;;8.40;99.90;;;;;;5089966;28;20024;-54
2020/12/24 07:51:53;;;;;;;16.58;2.35;;;8.40;99.90;;;;;;5072439;28;20024;-54
2020/12/24 07:54:24;;;;;;;3.85;1.35;;;8.40;99.90;;;;;;5090456;28;20025;-52
2020/12/24 07:56:51;;;;;;;7.78;2.42;;;8.40;99.90;;;;;;5090802;28;20063;-52
2020/12/24 07:59:17;;;;;;;7.70;1.23;;;8.40;99.90;;;;;;5089919;28;20020;-52
2020/12/24 08:01:43;;;;;;;8.65;1.50;;;8.30;99.90;;;;;;5075267;28;20047;-52
2020/12/24 08:04:09;;;;;;;5.35;1.33;;;8.40;99.90;;;;;;5094300;28;20145;-51
2020/12/24 08:06:35;;;;;;;3.90;1.02;;;8.40;99.90;;;;;;5094375;28;20069;-52
2020/12/24 08:09:07;;;;;;;9.68;2.47;;;8.40;99.90;;;;;;5093771;28;20028;-52
2020/12/24 08:11:33;;;;;;;4.80;1.40;;;8.40;99.90;;;;;;5094345;28;20099;-51
2020/12/24 08:13:59;;;;;;;5.22;1.25;;;8.40;99.90;;;;;;5094113;28;20091;-54
2020/12/24 08:16:26;;;;;;;6.70;1.98;;;8.40;99.90;;;;;;5094112;28;20373;-53
2020/12/24 08:18:59;;;;;;;12.10;2.70;;;8.30;99.90;;;;;;5075691;28;20040;-54
2020/12/24 08:21:32;;;;;;;8.38;1.70;;;8.30;99.90;;;;;;5075929;28;20585;-55
2020/12/24 08:24:02;;;;;;;4.07;1.33;;;8.30;99.90;;;;;;5094478;28;20062;-53
2020/12/24 08:26:28;;;;;;;6.00;1.73;;;8.30;99.90;;;;;;5094209;28;20020;-51
2020/12/24 08:29:01;;;;;;;5.85;1.23;;;8.30;99.90;;;;;;5075387;28;20468;-51
2020/12/24 08:31:29;;;;;;;8.38;1.40;;;8.30;99.90;;;;;;5094183;28;20024;-55
2020/12/24 08:33:55;;;;;;;7.03;1.33;;;8.30;99.90;;;;;;5093859;28;20024;-53
2020/12/24 08:36:29;;;;;;;6.47;1.20;;;8.30;99.90;;;;;;5093813;28;20036;-52
2020/12/24 08:39:06;;;;;;;6.65;1.40;;;8.30;99.90;;;;;;5093173;28;20020;-51
2020/12/24 08:41:35;;;;;;;9.32;1.90;;;8.30;99.90;;;;;;5074990;28;20031;-53
2020/12/24 08:44:03;;;;;;;5.43;1.92;;;8.20;99.90;;;;;;5093659;28;20020;-54
2020/12/24 08:46:28;;;;;;;3.38;0.93;;;8.20;99.90;;;;;;5075388;28;20024;-53
2020/12/24 08:48:54;;;;;;;6.40;1.23;;;8.20;99.90;;;;;;5093033;28;20482;-52
2020/12/24 08:51:20;;;;;;;6.72;1.75;;;8.20;99.90;;;;;;5093698;28;20089;-57
2020/12/24 08:53:46;;;;;;;4.15;1.10;;;8.20;99.90;;;;;;5093582;28;20032;-53
2020/12/24 08:56:18;;;;;;;3.75;1.08;;;8.20;99.90;;;;;;5093374;28;20027;-53
2020/12/24 08:58:52;;;;;;;8.85;2.45;;;8.30;99.90;;;;;;5074915;28;20090;-57
2020/12/24 09:01:19;;;;;;;1.10;0.90;;;8.30;99.90;;;;;;5093369;28;20024;-52
2020/12/24 09:03:46;;;;;;;7.15;1.20;;;8.30;99.90;;;;;;5093101;28;20031;-53
2020/12/24 09:06:12;;;;;;;8.95;1.83;;;8.40;99.90;;;;;;5093400;28;20374;-55
2020/12/24 09:08:40;;;;;;;2.35;0.70;;;8.40;99.90;;;;;;5092407;28;20020;-52
2020/12/24 09:11:06;;;;;;;1.15;0.82;;;8.40;99.90;;;;;;5093184;28;20070;-52
2020/12/24 09:13:32;;;;;;;1.95;0.70;;;8.50;99.90;;;;;;5073721;28;20032;-53
2020/12/24 09:16:08;;;;;;;4.22;0.88;;;8.50;99.90;;;;;;5093327;28;20409;-52
2020/12/24 09:18:33;;;;;;;2.55;1.10;;;8.50;99.90;;;;;;5074317;28;20123;-51
2020/12/24 09:21:08;;;;;;;1.25;0.73;;;8.50;99.90;;;;;;5093356;28;20102;-52
2020/12/24 09:23:34;;;;;;;1.92;0.70;;;8.50;99.90;;;;;;5093513;28;20434;-51
2020/12/24 09:26:00;;;;;;;3.67;0.68;;;8.50;99.90;;;;;;5093532;28;20302;-53
2020/12/24 09:28:27;;;;;;;2.25;0.60;;;8.60;99.90;;;;;;5074864;28;20048;-51
2020/12/24 09:30:57;;;;;;;3.38;0.70;;;8.60;99.90;;;;;;5096283;28;20028;-51
2020/12/24 09:33:23;;;;;;;0.82;0.60;;;8.60;99.90;;;;;;5093626;28;20026;-48
2020/12/24 09:35:49;;;;;;;0.60;0.60;;;8.60;99.90;;;;;;5093936;28;20368;-51
2020/12/24 09:38:14;;;;;;;1.73;0.70;;;8.60;99.90;;;;;;5092153;28;20024;-53
2020/12/24 09:40:40;;;;;;;0.60;0.60;;;8.60;99.90;;;;;;5074494;28;20046;-50
2020/12/24 09:43:06;;;;;;;0.63;0.50;;;8.60;99.90;;;;;;5092486;28;20469;-52
2020/12/24 09:45:32;;;;;;;1.20;0.50;;;8.60;99.90;;;;;;5074352;28;20027;-53
2020/12/24 09:47:58;;;;;;;0.60;0.40;;;8.60;99.90;;;;;;5087858;28;20469;-51
2020/12/24 09:50:24;;;;;;;3.67;0.82;;;8.60;99.90;;;;;;5064079;28;20032;-48
2020/12/24 09:52:49;;;;;;;0.60;0.60;;;8.60;99.90;;;;;;5066983;28;20553;-53
2020/12/24 09:55:15;;;;;;;1.15;0.60;;;8.60;99.90;;;;;;5071241;28;20120;-50
2020/12/24 09:57:41;;;;;;;1.70;0.50;;;8.70;99.90;;;;;;5077166;28;20111;-49
2020/12/24 10:00:09;;;;;;;1.88;0.50;;;8.80;99.90;;;;;;5081637;28;20539;-49
2020/12/24 10:02:35;;;;;;;0.98;0.50;;;8.80;99.90;;;;;;5071901;28;20021;-48
2020/12/24 10:05:01;;;;;;;1.17;0.50;;;8.90;99.90;;;;;;5089434;28;20101;-48
2020/12/24 10:07:27;;;;;;;2.30;0.60;;;8.90;99.90;;;;;;5092137;28;20056;-55
2020/12/24 10:09:53;;;;;;;0.40;0.40;;;9.00;99.90;;;;;;5090733;28;20393;-55
2020/12/24 10:12:23;;;;;;;0.82;0.82;;;9.00;99.90;;;;;;5091988;28;20023;-55
2020/12/24 10:14:49;;;;;;;2.08;0.70;;;9.00;99.90;;;;;;5073538;28;20013;-49
2020/12/24 10:17:15;;;;;;;1.92;0.50;;;9.10;99.90;;;;;;5080435;28;20424;-47
2020/12/24 10:19:43;;;;;;;0.30;0.30;;;9.10;99.90;;;;;;5090654;28;20024;-52
2020/12/24 10:22:09;;;;;;;0.43;0.43;;;9.10;99.90;;;;;;5073687;28;20481;-52
2020/12/24 10:24:36;;;;;;;0.43;0.43;;;9.10;99.90;;;;;;5091948;28;20032;-49
2020/12/24 10:27:02;;;;;;;2.05;0.70;;;9.10;99.90;;;;;;5091850;28;20024;-50
2020/12/24 10:29:27;;;;;;;0.32;0.32;;;9.20;99.90;;;;;;5073007;28;20050;-49
2020/12/24 10:31:53;;;;;;;1.08;0.65;;;9.20;99.90;;;;;;5091855;28;20414;-50
2020/12/24 10:34:18;;;;;;;1.02;0.55;;;9.20;99.90;;;;;;5091664;28;20033;-55
2020/12/24 10:36:44;;;;;;;0.38;0.38;;;9.30;99.90;;;;;;5091591;28;20390;-48
2020/12/24 10:39:09;;;;;;;0.73;0.60;;;9.30;99.90;;;;;;5072980;28;20076;-47
2020/12/24 10:41:39;;;;;;;1.67;0.98;;;9.30;99.90;;;;;;5091651;28;20016;-48
2020/12/24 10:44:05;;;;;;;2.38;0.57;;;9.30;99.90;;;;;;5091411;28;20013;-52
2020/12/24 10:46:31;;;;;;;1.48;0.40;;;9.20;99.90;;;;;;5091258;28;20026;-52
2020/12/24 10:48:57;;;;;;;1.75;0.70;;;9.30;99.90;;;;;;5067955;28;20162;-53
2020/12/24 10:51:22;;;;;;;1.25;0.40;;;9.20;99.90;;;;;;5053754;28;20515;-48
2020/12/24 10:53:48;;;;;;;0.55;0.50;;;9.30;99.90;;;;;;5071030;28;20563;-48
2020/12/24 10:56:14;;;;;;;0.40;0.40;;;9.40;99.90;;;;;;5052825;28;20020;-48
2020/12/24 10:58:44;;;;;;;2.65;0.60;;;9.60;99.90;;;;;;5070333;28;20036;-47
2020/12/24 11:01:15;;;;;;;1.45;1.00;;;9.80;99.90;;;;;;5075654;28;20024;-48
2020/12/24 11:03:40;;;;;;;0.60;0.40;;;9.80;99.90;;;;;;5090990;28;20036;-47
2020/12/24 11:06:24;;;;;;;0.70;0.70;;;9.80;99.90;;;;;;5091597;28;20031;-47
2020/12/24 11:08:52;;;;;;;3.47;0.93;;;9.80;99.90;;;;;;5090564;28;20028;-49
2020/12/24 11:11:18;;;;;;;0.70;0.70;;;9.80;99.90;;;;;;5072762;28;20050;-54
2020/12/24 11:13:46;;;;;;;0.80;0.60;;;9.70;99.90;;;;;;5091011;28;20484;-48
2020/12/24 11:16:20;;;;;;;2.22;0.80;;;9.70;99.90;;;;;;5091079;28;20032;-53
2020/12/24 11:18:46;;;;;;;0.90;0.90;;;9.70;99.90;;;;;;5090269;28;20035;-51
2020/12/24 11:21:12;;;;;;;1.35;0.88;;;9.50;99.90;;;;;;5091059;28;20056;-51
2020/12/24 11:23:37;;;;;;;1.17;0.70;;;9.40;99.90;;;;;;5090925;28;20063;-51
2020/12/24 11:26:03;;;;;;;0.93;0.77;;;9.30;99.90;;;;;;5076984;28;20481;-47
2020/12/24 11:28:28;;;;;;;1.05;0.70;;;9.40;99.90;;;;;;5069802;28;20115;-48
2020/12/24 11:30:54;;;;;;;0.70;0.70;;;9.40;99.90;;;;;;5079645;28;20085;-52
2020/12/24 11:33:19;;;;;;;0.68;0.57;;;9.50;99.90;;;;;;5067638;28;20029;-51
2020/12/24 11:35:46;;;;;;;1.17;0.80;;;9.50;99.90;;;;;;5083898;28;20431;-52
2020/12/24 11:38:12;;;;;;;0.60;0.60;;;9.50;99.90;;;;;;5079072;28;20082;-53
2020/12/24 11:40:38;;;;;;;0.95;0.60;;;9.50;99.90;;;;;;5072432;28;20060;-52
2020/12/24 11:43:03;;;;;;;1.40;0.50;;;9.50;99.90;;;;;;5079496;28;20063;-56
2020/12/24 11:45:29;;;;;;;0.30;0.30;;;9.60;99.90;;;;;;5089177;28;20029;-50
2020/12/24 11:47:55;;;;;;;0.45;0.45;;;9.60;99.90;;;;;;5078562;28;20016;-48
2020/12/24 11:50:20;;;;;;;1.75;0.70;;;9.60;99.90;;;;;;5090527;28;20059;-52
2020/12/24 11:52:46;;;;;;;0.40;0.40;;;9.70;99.90;;;;;;5089812;28;20047;-54
2020/12/24 11:55:11;;;;;;;1.23;0.60;;;9.80;99.70;;;;;;5086027;28;20426;-50
2020/12/24 11:57:37;;;;;;;0.50;0.50;;;9.80;99.40;;;;;;5074738;28;20522;-63
2020/12/24 12:00:06;;;;;;;0.63;0.47;;;9.80;99.20;;;;;;5089193;28;20036;-52
2020/12/24 12:02:32;;;;;;;0.57;0.50;;;9.90;98.80;;;;;;5085993;28;20063;-54
2020/12/24 12:04:58;;;;;;;0.57;0.52;;;9.90;99.00;;;;;;5069758;28;20485;-53
2020/12/24 12:07:23;;;;;;;2.72;1.63;;;10.00;99.20;;;;;;5069737;28;20036;-53
2020/12/24 12:09:48;;;;;;;2.38;1.30;;;10.00;99.00;;;;;;5069566;28;20059;-50
2020/12/24 12:12:14;;;;;;;3.58;1.70;;;10.10;98.30;;;;;;5058799;28;20037;-56
2020/12/24 12:14:39;;;;;;;2.47;1.35;;;10.00;98.50;;;;;;5049781;28;20419;-53
2020/12/24 12:17:05;;;;;;;0.40;0.40;;;9.90;98.80;;;;;;5049689;28;20021;-50
2020/12/24 12:19:30;;;;;;;48.88;3.72;;;9.90;98.60;;;;;;5048627;28;20031;-48
2020/12/24 12:21:56;;;;;;;0.65;0.57;;;9.80;98.80;;;;;;5031545;28;20025;-51
2020/12/24 12:24:22;;;;;;;0.40;0.40;;;9.80;98.70;;;;;;5063818;28;20029;-55
2020/12/24 12:26:47;;;;;;;0.52;0.52;;;9.90;98.40;;;;;;5051308;28;20051;-51
2020/12/24 12:29:14;;;;;;;0.40;0.40;;;9.90;98.60;;;;;;5068097;28;20099;-49
2020/12/24 12:31:39;;;;;;;0.60;0.60;;;9.90;98.70;;;;;;5069203;28;20021;-53
2020/12/24 12:34:05;;;;;;;1.13;0.30;;;9.90;98.60;;;;;;5069187;28;20036;-49
2020/12/24 12:36:31;;;;;;;1.80;0.80;;;10.00;98.70;;;;;;5068972;28;20413;-52
2020/12/24 12:38:56;;;;;;;0.73;0.60;;;10.00;98.40;;;;;;5069057;28;20032;-53
2020/12/24 12:41:22;;;;;;;0.73;0.65;;;10.10;98.10;;;;;;5068570;28;20421;-49
2020/12/24 12:43:48;;;;;;;0.90;0.85;;;;;;;;;;5051184;28;20031;-56
2020/12/24 12:46:22;;;;;;;0.30;0.30;;;10.30;99.90;;;;;;5069485;28;20430;-52
2020/12/24 12:48:48;;;;;;;0.77;0.77;;;10.10;99.40;;;;;;5071945;28;20547;-48
2020/12/24 12:51:14;;;;;;;0.70;0.70;;;10.10;99.90;;;;;;5053825;28;20505;-49
2020/12/24 12:53:40;;;;;;;0.30;0.30;;;10.00;99.90;;;;;;5073046;28;20028;-48